Champion Jet 2 — 5BGN4 — position and weather

sailwx.info

Track history (hours):
 
Tides and Currents Weather Stations Pressure Air Temp Water Temp Dewpoint Dewpoint Depression Visibility Wind Speed Wind Dir Waves Ship Positions

Champion Jet 2

Last reported at 2017-Sep-20 12:46 UTC. Time now 2017-Sep-20 23:53 UTC.
Position N 36°59' E 025°18'.

Length 86 m; draft 3.8 m.

Type: High speed craft. MMSI: 209074000.

Date/timePositionNaut miles runAvg speedWind from/ knotsBaromVisibWave heightAir tempDewpointWater temp
2017-Sep-20 12:46N 36°59' E 025°18'828.9
2017-Sep-20 12:31N 37°06' E 025°22'1018.1
2017-Sep-20 11:56N 37°07' E 025°09'3 6.3
2017-Sep-20 11:29N 37°10' E 025°09'1633.9
2017-Sep-20 11:01N 37°25' E 025°17'2 3.1
2017-Sep-20 10:31N 37°26' E 025°17'1734.3
2017-Sep-20 10:01N 37°09' E 025°21'714.1
2017-Sep-20 09:30N 37°03' E 025°18'105 6.3
2017-Sep-19 16:51N 35°24' E 024°33'411.7
2017-Sep-19 16:30N 35°22' E 024°29'1326.5
2017-Sep-19 16:00N 35°35' E 024°35'9125.7
2017-Sep-19 12:27N 36°59' E 025°18'919.3
2017-Sep-19 12:01N 37°07' E 025°21'1117.3
2017-Sep-19 11:24N 37°05' E 025°08'1230.0
2017-Sep-19 11:01N 37°16' E 025°14'1224.9
2017-Sep-19 10:30N 37°28' E 025°20'918.9
2017-Sep-19 10:01N 37°19' E 025°16'1326.5
2017-Sep-19 09:30N 37°06' E 025°22'10425.6
2017-Sep-19 05:28N 35°30' E 024°36'920.3
2017-Sep-19 05:00N 35°22' E 024°29'0 0.0
2017-Sep-19 04:30N 35°22' E 024°29'1 1.7
2017-Sep-19 04:01N 35°23' E 024°28'104 6.8
2017-Sep-18 12:37N 36°59' E 025°18'436.2
2017-Sep-18 12:31N 37°03' E 025°19'815.1
2017-Sep-18 12:01N 37°10' E 025°15'713.5
2017-Sep-18 11:30N 37°06' E 025°08'1735.2
2017-Sep-18 11:01N 37°22' E 025°17'611.3
2017-Sep-18 10:31N 37°28' E 025°18'1733.5
2017-Sep-18 10:01N 37°11' E 025°20'714.9
2017-Sep-18 09:31N 37°04' E 025°19'5 0.2
2017-Sep-17 13:49N 36°59' E 025°18'826.2
2017-Sep-17 13:30N 37°06' E 025°22'1121.6
2017-Sep-17 13:00N 37°07' E 025°08'4 8.9
2017-Sep-17 12:31N 37°11' E 025°10'1734.1
2017-Sep-17 12:01N 37°27' E 025°18'1 2.5
2017-Sep-17 11:31N 37°26' E 025°17'1833.9
2017-Sep-17 10:59N 37°09' E 025°09'2 4.5
2017-Sep-17 10:28N 37°09' E 025°12'919.0
2017-Sep-17 10:01N 37°06' E 025°22'108 6.3
2017-Sep-16 16:52N 35°25' E 024°35'615.9
2017-Sep-16 16:30N 35°22' E 024°29'9 0.8
2017-Sep-16 05:22N 35°30' E 024°35'925.2
2017-Sep-16 05:00N 35°22' E 024°29'0 0.1
2017-Sep-16 04:30N 35°22' E 024°29'0 0.7
2017-Sep-16 04:01N 35°22' E 024°29'104 6.8
2017-Sep-15 12:41N 36°59' E 025°18'634.9
2017-Sep-15 12:31N 37°05' E 025°20'714.1
2017-Sep-15 12:01N 37°09' E 025°13'2 4.3
2017-Sep-15 11:26N 37°10' E 025°10'1535.3
2017-Sep-15 11:01N 37°24' E 025°17'3 5.5
2017-Sep-15 10:30N 37°27' E 025°18'1733.8
2017-Sep-15 10:01N 37°10' E 025°21'714.3
2017-Sep-15 09:31N 37°03' E 025°19'4 0.2
2017-Sep-14 12:40N 36°59' E 025°18'635.0
2017-Sep-14 12:31N 37°05' E 025°20'713.3
2017-Sep-14 12:01N 37°10' E 025°14'510.6
2017-Sep-14 11:30N 37°07' E 025°08'1836.0
2017-Sep-14 11:01N 37°23' E 025°17'3 6.1
2017-Sep-14 10:31N 37°26' E 025°17'1632.7
2017-Sep-14 10:01N 37°10' E 025°20'714.0
2017-Sep-14 09:31N 37°03' E 025°19'4 0.2
2017-Sep-13 13:31N 36°59' E 025°18'036.9
2017-Sep-13 13:31N 36°60' E 025°18'1019.7
2017-Sep-13 13:01N 37°09' E 025°18'917.7
2017-Sep-13 12:30N 37°05' E 025°08'1734.5
2017-Sep-13 12:00N 37°21' E 025°00'612.2
2017-Sep-13 11:29N 37°27' E 025°03'1326.5
2017-Sep-13 11:00N 37°28' E 025°19'1020.3
2017-Sep-13 10:31N 37°18' E 025°18'1223.7
2017-Sep-13 10:00N 37°06' E 025°22'107 6.6
2017-Sep-12 17:43N 35°26' E 024°37'731.6
2017-Sep-12 17:30N 35°23' E 024°30'5 9.7
2017-Sep-12 17:01N 35°27' E 024°31'9923.7
2017-Sep-12 12:49N 36°59' E 025°18'825.9
2017-Sep-12 12:31N 37°06' E 025°22'1121.3
2017-Sep-12 11:59N 37°07' E 025°08'5 9.9
2017-Sep-12 11:30N 37°11' E 025°11'1734.0
2017-Sep-12 11:01N 37°27' E 025°18'4 8.2
2017-Sep-12 10:31N 37°23' E 025°17'1632.6
2017-Sep-12 10:01N 37°07' E 025°22'10223.0
2017-Sep-12 05:33N 35°33' E 024°31'131.5
2017-Sep-12 05:31N 35°32' E 024°31'1019.3
2017-Sep-12 05:00N 35°22' E 024°29'0 0.0
2017-Sep-12 04:30N 35°22' E 024°29'3 6.4
2017-Sep-12 04:01N 35°25' E 024°30'102 6.6
2017-Sep-11 12:40N 36°59' E 025°18'633.9
2017-Sep-11 12:31N 37°05' E 025°19'713.0
2017-Sep-11 12:01N 37°10' E 025°14'611.7
2017-Sep-11 11:30N 37°07' E 025°08'1835.2
2017-Sep-11 11:01N 37°23' E 025°17'510.4
2017-Sep-11 10:31N 37°28' E 025°18'1734.3
2017-Sep-11 10:01N 37°11' E 025°21'714.7
2017-Sep-11 09:31N 37°04' E 025°19'4 0.2
2017-Sep-10 13:31N 36°59' E 025°18'035.0
2017-Sep-10 13:31N 36°60' E 025°18'918.5
2017-Sep-10 13:01N 37°09' E 025°20'  
Track history (hours):
 
Tides and Currents Weather Stations Pressure Air Temp Water Temp Dewpoint Dewpoint Depression Visibility Wind Speed Wind Dir Waves Ship Positions

Champion Jet 2

Last reported at 2017-Sep-20 12:46 UTC. Time now 2017-Sep-20 23:53 UTC.
Position N 36°59' E 025°18'.

Length 86 m; draft 3.8 m.

Type: High speed craft. MMSI: 209074000.

Date/timePositionNaut miles runAvg speedWind from/ knotsBaromVisibWave heightAir tempDewpointWater temp
2017-Sep-20 12:46N 36°59' E 025°18'828.9
2017-Sep-20 12:31N 37°06' E 025°22'1018.1
2017-Sep-20 11:56N 37°07' E 025°09'3 6.3
2017-Sep-20 11:29N 37°10' E 025°09'1633.9
2017-Sep-20 11:01N 37°25' E 025°17'2 3.1
2017-Sep-20 10:31N 37°26' E 025°17'1734.3
2017-Sep-20 10:01N 37°09' E 025°21'714.1
2017-Sep-20 09:30N 37°03' E 025°18'105 6.3
2017-Sep-19 16:51N 35°24' E 024°33'411.7
2017-Sep-19 16:30N 35°22' E 024°29'1326.5
2017-Sep-19 16:00N 35°35' E 024°35'9125.7
2017-Sep-19 12:27N 36°59' E 025°18'919.3
2017-Sep-19 12:01N 37°07' E 025°21'1117.3
2017-Sep-19 11:24N 37°05' E 025°08'1230.0
2017-Sep-19 11:01N 37°16' E 025°14'1224.9
2017-Sep-19 10:30N 37°28' E 025°20'918.9
2017-Sep-19 10:01N 37°19' E 025°16'1326.5
2017-Sep-19 09:30N 37°06' E 025°22'10425.6
2017-Sep-19 05:28N 35°30' E 024°36'920.3
2017-Sep-19 05:00N 35°22' E 024°29'0 0.0
2017-Sep-19 04:30N 35°22' E 024°29'1 1.7
2017-Sep-19 04:01N 35°23' E 024°28'104 6.8
2017-Sep-18 12:37N 36°59' E 025°18'436.2
2017-Sep-18 12:31N 37°03' E 025°19'815.1
2017-Sep-18 12:01N 37°10' E 025°15'713.5
2017-Sep-18 11:30N 37°06' E 025°08'1735.2
2017-Sep-18 11:01N 37°22' E 025°17'611.3
2017-Sep-18 10:31N 37°28' E 025°18'1733.5
2017-Sep-18 10:01N 37°11' E 025°20'714.9
2017-Sep-18 09:31N 37°04' E 025°19'5 0.2
2017-Sep-17 13:49N 36°59' E 025°18'826.2
2017-Sep-17 13:30N 37°06' E 025°22'1121.6
2017-Sep-17 13:00N 37°07' E 025°08'4 8.9
2017-Sep-17 12:31N 37°11' E 025°10'1734.1
2017-Sep-17 12:01N 37°27' E 025°18'1 2.5
2017-Sep-17 11:31N 37°26' E 025°17'1833.9
2017-Sep-17 10:59N 37°09' E 025°09'2 4.5
2017-Sep-17 10:28N 37°09' E 025°12'919.0
2017-Sep-17 10:01N 37°06' E 025°22'108 6.3
2017-Sep-16 16:52N 35°25' E 024°35'615.9
2017-Sep-16 16:30N 35°22' E 024°29'9 0.8
2017-Sep-16 05:22N 35°30' E 024°35'925.2
2017-Sep-16 05:00N 35°22' E 024°29'0 0.1
2017-Sep-16 04:30N 35°22' E 024°29'0 0.7
2017-Sep-16 04:01N 35°22' E 024°29'104 6.8
2017-Sep-15 12:41N 36°59' E 025°18'634.9
2017-Sep-15 12:31N 37°05' E 025°20'714.1
2017-Sep-15 12:01N 37°09' E 025°13'2 4.3
2017-Sep-15 11:26N 37°10' E 025°10'1535.3
2017-Sep-15 11:01N 37°24' E 025°17'3 5.5
2017-Sep-15 10:30N 37°27' E 025°18'1733.8
2017-Sep-15 10:01N 37°10' E 025°21'714.3
2017-Sep-15 09:31N 37°03' E 025°19'4 0.2
2017-Sep-14 12:40N 36°59' E 025°18'635.0
2017-Sep-14 12:31N 37°05' E 025°20'713.3
2017-Sep-14 12:01N 37°10' E 025°14'510.6
2017-Sep-14 11:30N 37°07' E 025°08'1836.0
2017-Sep-14 11:01N 37°23' E 025°17'3 6.1
2017-Sep-14 10:31N 37°26' E 025°17'1632.7
2017-Sep-14 10:01N 37°10' E 025°20'714.0
2017-Sep-14 09:31N 37°03' E 025°19'4 0.2
2017-Sep-13 13:31N 36°59' E 025°18'036.9
2017-Sep-13 13:31N 36°60' E 025°18'1019.7
2017-Sep-13 13:01N 37°09' E 025°18'917.7
2017-Sep-13 12:30N 37°05' E 025°08'1734.5
2017-Sep-13 12:00N 37°21' E 025°00'612.2
2017-Sep-13 11:29N 37°27' E 025°03'1326.5
2017-Sep-13 11:00N 37°28' E 025°19'1020.3
2017-Sep-13 10:31N 37°18' E 025°18'1223.7
2017-Sep-13 10:00N 37°06' E 025°22'107 6.6
2017-Sep-12 17:43N 35°26' E 024°37'731.6
2017-Sep-12 17:30N 35°23' E 024°30'5 9.7
2017-Sep-12 17:01N 35°27' E 024°31'9923.7
2017-Sep-12 12:49N 36°59' E 025°18'825.9
2017-Sep-12 12:31N 37°06' E 025°22'1121.3
2017-Sep-12 11:59N 37°07' E 025°08'5 9.9
2017-Sep-12 11:30N 37°11' E 025°11'1734.0
2017-Sep-12 11:01N 37°27' E 025°18'4 8.2
2017-Sep-12 10:31N 37°23' E 025°17'1632.6
2017-Sep-12 10:01N 37°07' E 025°22'10223.0
2017-Sep-12 05:33N 35°33' E 024°31'131.5
2017-Sep-12 05:31N 35°32' E 024°31'1019.3
2017-Sep-12 05:00N 35°22' E 024°29'0 0.0
2017-Sep-12 04:30N 35°22' E 024°29'3 6.4
2017-Sep-12 04:01N 35°25' E 024°30'102 6.6
2017-Sep-11 12:40N 36°59' E 025°18'633.9
2017-Sep-11 12:31N 37°05' E 025°19'713.0
2017-Sep-11 12:01N 37°10' E 025°14'611.7
2017-Sep-11 11:30N 37°07' E 025°08'1835.2
2017-Sep-11 11:01N 37°23' E 025°17'510.4
2017-Sep-11 10:31N 37°28' E 025°18'1734.3
2017-Sep-11 10:01N 37°11' E 025°21'714.7
2017-Sep-11 09:31N 37°04' E 025°19'4 0.2
2017-Sep-10 13:31N 36°59' E 025°18'035.0
2017-Sep-10 13:31N 36°60' E 025°18'918.5
2017-Sep-10 13:01N 37°09' E 025°20'  

Dump ship's entire track history